Time;durP1;ratioP1;P1;durP2;ratioP2;P2;SDS_P1;SDS_P2;PMS_P1;PMS_P2;Temp;Humidity;BMP_temperature;BMP_pressure;BME280_temperature;BME280_humidity;BME280_pressure;Samples;Min_cycle;Max_cycle;Signal;HPM_P1;HPM_P2
2022/08/22 00:00:15;;;;;;;14.75;9.30;;;;;;;20.45;79.42;95717.22;5114727;28;20055;-60
2022/08/22 00:02:56;;;;;;;16.58;9.45;;;;;;;20.52;79.61;95722.81;5114891;28;20447;-59
2022/08/22 00:05:31;;;;;;;12.60;10.13;;;;;;;20.58;79.31;95726.72;5114886;28;20109;-60
2022/08/22 00:08:07;;;;;;;18.58;9.27;;;;;;;20.61;79.35;95728.25;5114723;28;20078;-60
2022/08/22 00:10:48;;;;;;;16.35;9.27;;;;;;;20.60;78.96;95719.44;5114696;28;20073;-59
2022/08/22 00:13:25;;;;;;;13.15;9.40;;;;;;;20.55;79.38;95727.00;5114612;28;20055;-59
2022/08/22 00:15:59;;;;;;;12.95;9.18;;;;;;;20.51;79.61;95723.78;5114653;28;20043;-59
2022/08/22 00:18:32;;;;;;;16.00;9.48;;;;;;;20.48;79.65;95720.56;5114455;28;20076;-59
2022/08/22 00:21:09;;;;;;;20.30;9.32;;;;;;;20.41;79.43;95713.16;5114498;28;20447;-59
2022/08/22 00:23:41;;;;;;;14.15;9.48;;;;;;;20.34;79.97;95712.03;5114736;28;20493;-59
2022/08/22 00:26:20;;;;;;;14.80;9.55;;;;;;;20.32;80.43;95706.88;5114428;28;20054;-60
2022/08/22 00:28:52;;;;;;;18.60;10.15;;;;;;;20.26;80.20;95701.28;5114619;28;20044;-60
2022/08/22 00:31:26;;;;;;;19.65;11.02;;;;;;;20.17;80.69;95698.47;5114504;28;20044;-59
2022/08/22 00:34:01;;;;;;;17.80;11.20;;;;;;;20.22;80.67;95703.38;5114132;28;20051;-60
2022/08/22 00:36:35;;;;;;;10.85;9.75;;;;;;;20.24;80.61;95706.75;5114288;28;20048;-60
2022/08/22 00:39:16;;;;;;;15.48;8.73;;;;;;;20.21;79.97;95709.66;5114269;28;20481;-60
2022/08/22 00:42:40;;;;;;;12.05;10.05;;;;;;;20.26;80.42;95706.59;5114159;28;20484;-60
2022/08/22 00:45:33;;;;;;;13.73;9.02;;;;;;;20.23;79.76;95712.19;5091844;28;20433;-61
2022/08/22 00:48:41;;;;;;;12.43;11.10;;;;;;;20.19;79.94;95712.47;5091715;28;20048;-60
2022/08/22 00:51:23;;;;;;;20.95;9.93;;;;;;;20.18;80.21;95720.56;5089363;28;20082;-59
2022/08/22 00:53:58;;;;;;;14.77;10.35;;;;;;;20.15;79.62;95719.03;5114019;28;20052;-59
2022/08/22 00:56:59;;;;;;;17.65;9.43;;;;;;;20.11;79.52;95722.94;5114010;28;20092;-60
2022/08/22 00:59:40;;;;;;;;;;;;;;;20.10;79.49;95718.59;5114264;28;20048;-60
2022/08/22 01:02:32;;;;;;;11.27;10.05;;;;;;;20.07;79.30;95708.25;5113659;28;19926;-59
2022/08/22 01:05:20;;;;;;;15.25;9.52;;;;;;;20.04;79.73;95712.03;5113884;28;20092;-60
2022/08/22 01:08:02;;;;;;;12.52;9.15;;;;;;;20.01;79.50;95704.34;5113739;28;20050;-60
2022/08/22 01:10:45;;;;;;;17.67;9.98;;;;;;;20.01;78.79;95704.34;5112670;28;20044;-60
2022/08/22 01:13:39;;;;;;;15.27;9.32;;;;;;;19.96;78.62;95706.56;5113687;28;20109;-60
2022/08/22 01:16:21;;;;;;;16.35;10.02;;;;;;;19.95;78.66;95707.50;5113576;28;20193;-60
2022/08/22 01:19:05;;;;;;;22.23;10.10;;;;;;;19.94;78.66;95700.53;5113962;28;20058;-60
2022/08/22 01:22:08;;;;;;;17.75;9.15;;;;;;;19.90;78.38;95705.25;5113668;28;20058;-61
2022/08/22 01:25:22;;;;;;;15.38;9.25;;;;;;;19.82;78.35;95705.13;5112203;28;20043;-59
2022/08/22 01:28:23;;;;;;;17.95;9.13;;;;;;;19.78;78.95;95701.06;5113641;28;20409;-59
2022/08/22 01:31:15;;;;;;;;;;;;;;;19.77;78.92;95699.38;5112883;28;20122;-60
2022/08/22 01:34:36;;;;;;;10.48;9.02;;;;;;;19.66;78.60;95701.16;5117860;28;19927;-60
2022/08/22 01:37:29;;;;;;;12.70;8.88;;;;;;;19.60;78.81;95693.78;5095289;28;20079;-60
2022/08/22 01:40:29;;;;;;;10.52;7.70;;;;;;;19.60;78.58;95700.88;5085324;28;20462;-60
2022/08/22 01:43:09;;;;;;;17.47;8.37;;;;;;;19.63;78.52;95706.72;5117603;28;20126;-60
2022/08/22 01:45:58;;;;;;;12.02;7.50;;;;;;;19.62;78.54;95693.63;5117604;28;20101;-59
2022/08/22 01:48:35;;;;;;;11.02;7.00;;;;;;;19.57;78.19;95692.19;5117462;28;20048;-60
2022/08/22 01:51:17;;;;;;;16.70;7.47;;;;;;;19.54;78.29;95696.97;5117532;28;20047;-60
2022/08/22 01:53:57;;;;;;;13.02;6.82;;;;;;;19.51;78.07;95690.09;5117443;28;20048;-59
2022/08/22 01:56:25;;;;;;;10.77;7.25;;;;;;;19.45;78.37;95688.81;5117572;28;20493;-60
2022/08/22 01:58:59;;;;;;;9.90;6.72;;;;;;;19.45;78.36;95695.97;5117334;28;20556;-60
2022/08/22 02:01:40;;;;;;;12.05;6.07;;;;;;;19.50;78.31;95703.50;5117179;28;20068;-59
2022/08/22 02:04:19;;;;;;;9.13;6.05;;;;;;;19.44;78.31;95700.41;5117179;28;20047;-60
2022/08/22 02:06:58;;;;;;;12.05;6.78;;;;;;;19.40;78.39;95688.41;5117378;28;20062;-61
2022/08/22 02:09:35;;;;;;;10.10;6.38;;;;;;;19.45;78.05;95702.06;5117007;28;20044;-59
2022/08/22 02:12:24;;;;;;;11.90;6.70;;;;;;;19.41;78.51;95700.69;5117111;28;20047;-60
2022/08/22 02:15:00;;;;;;;13.70;6.45;;;;;;;19.43;78.32;95697.88;5117308;28;20440;-59
2022/08/22 02:17:32;;;;;;;13.52;6.63;;;;;;;19.47;78.52;95709.91;5116937;28;20101;-60
2022/08/22 02:20:10;;;;;;;10.65;6.43;;;;;;;19.47;78.15;95701.13;5117153;28;20104;-60
2022/08/22 02:22:43;;;;;;;9.65;6.68;;;;;;;19.49;78.41;95704.47;5117157;28;20543;-61
2022/08/22 02:25:17;;;;;;;8.00;5.60;;;;;;;19.52;77.67;95704.19;5116705;28;20135;-58
2022/08/22 02:27:56;;;;;;;16.63;6.63;;;;;;;19.56;77.25;95709.09;5116738;28;20375;-60
2022/08/22 02:30:31;;;;;;;8.43;5.93;;;;;;;19.67;77.22;95720.56;5116631;28;20048;-59
2022/08/22 02:33:05;;;;;;;19.50;6.25;;;;;;;19.70;77.92;95712.34;5116675;28;20476;-59
2022/08/22 02:35:40;;;;;;;10.82;5.70;;;;;;;19.72;77.58;95714.88;5116706;28;20091;-60
2022/08/22 02:38:21;;;;;;;11.52;6.22;;;;;;;19.71;77.75;95724.63;5116699;28;20523;-58
2022/08/22 02:41:00;;;;;;;7.35;5.90;;;;;;;19.67;77.72;95728.53;5116600;28;20051;-60
2022/08/22 02:43:34;;;;;;;9.77;6.30;;;;;;;19.66;77.71;95718.91;5116414;28;20477;-59
2022/08/22 02:46:14;;;;;;;12.48;6.25;;;;;;;19.68;77.62;95714.28;5116482;28;20048;-60
2022/08/22 02:48:48;;;;;;;11.88;6.28;;;;;;;19.68;77.89;95716.94;5116364;28;20071;-60
2022/08/22 02:51:26;;;;;;;8.35;5.95;;;;;;;19.67;78.19;95710.81;5116292;28;20054;-60
2022/08/22 02:54:03;;;;;;;10.25;6.18;;;;;;;19.63;78.45;95692.66;5116361;28;20049;-60
2022/08/22 02:56:34;;;;;;;14.60;6.00;;;;;;;19.62;78.67;95701.59;5116309;27;20535;-59
2022/08/22 02:59:22;;;;;;;12.90;5.65;;;;;;;19.50;77.52;95701.69;5116174;28;20058;-60
2022/08/22 03:01:50;;;;;;;8.55;5.32;;;;;;;19.50;77.77;95711.47;5116159;28;20044;-59
2022/08/22 03:04:24;;;;;;;7.63;5.55;;;;;;;19.52;77.74;95717.44;5116325;28;20103;-61
2022/08/22 03:07:11;;;;;;;8.32;5.90;;;;;;;19.61;78.15;95729.06;5116089;28;20039;-59
2022/08/22 03:09:48;;;;;;;10.18;5.88;;;;;;;19.62;78.54;95734.25;5115930;28;20051;-60
2022/08/22 03:12:25;;;;;;;14.50;6.47;;;;;;;19.64;78.24;95734.09;5116032;28;20075;-60
2022/08/22 03:15:01;;;;;;;10.45;5.80;;;;;;;19.61;77.88;95729.91;5115799;28;20086;-60
2022/08/22 03:17:33;;;;;;;8.20;5.97;;;;;;;19.63;78.13;95735.09;5115928;28;20047;-59
2022/08/22 03:20:06;;;;;;;8.32;5.32;;;;;;;19.64;78.12;95736.75;5115885;28;20445;-60
2022/08/22 03:22:42;;;;;;;7.57;5.45;;;;;;;19.70;78.56;95734.41;5115700;28;20100;-60
2022/08/22 03:25:21;;;;;;;8.27;5.68;;;;;;;19.68;77.87;95736.34;5115622;28;20079;-59
2022/08/22 03:27:55;;;;;;;11.95;5.30;;;;;;;19.74;78.46;95739.47;5115682;28;20047;-60
2022/08/22 03:30:32;;;;;;;14.23;5.53;;;;;;;19.78;77.87;95746.97;5115528;28;20043;-60
2022/08/22 03:33:16;;;;;;;11.30;6.28;;;;;;;19.83;77.47;95752.75;5115609;28;20142;-60
2022/08/22 03:36:00;;;;;;;8.45;5.15;;;;;;;19.83;77.14;95739.47;5115419;28;20093;-60
2022/08/22 03:38:40;;;;;;;11.10;5.70;;;;;;;19.79;76.47;95740.72;5115373;27;20081;-59
2022/08/22 03:41:37;;;;;;;11.37;5.43;;;;;;;19.91;76.60;95749.41;5115387;28;20044;-60
2022/08/22 03:44:37;;;;;;;12.13;5.85;;;;;;;19.94;76.87;95754.44;5113309;28;20104;-60
2022/08/22 03:47:38;;;;;;;6.95;5.75;;;;;;;20.04;76.83;95745.69;5115281;28;20044;-60
2022/08/22 03:50:43;;;;;;;8.45;5.65;;;;;;;20.11;75.65;95740.69;5115210;28;20478;-60
2022/08/22 03:53:48;;;;;;;31.30;6.55;;;;;;;20.13;75.30;95736.91;5103557;28;20455;-59
2022/08/22 03:56:33;;;;;;;7.13;5.88;;;;;;;20.15;75.13;95728.81;5115150;28;20047;-60
2022/08/22 03:59:34;;;;;;;6.80;5.20;;;;;;;20.19;75.48;95732.84;5115077;28;20047;-61
2022/08/22 04:02:16;;;;;;;6.32;5.38;;;;;;;20.21;75.06;95744.19;5115079;28;20054;-59
2022/08/22 04:05:26;;;;;;;11.63;6.38;;;;;;;20.37;75.01;95753.41;5114943;28;20112;-60
2022/08/22 04:08:24;;;;;;;8.07;5.55;;;;;;;20.45;74.03;95759.72;5114997;28;20043;-60
2022/08/22 04:11:25;;;;;;;9.93;5.30;;;;;;;20.57;75.79;95760.41;5106964;27;20489;-60
2022/08/22 04:14:26;;;;;;;9.80;6.20;;;;;;;20.68;77.16;95755.94;5114547;28;20485;-59
2022/08/22 04:17:23;;;;;;;8.60;5.72;;;;;;;20.77;78.02;95757.72;5107880;28;20096;-60
2022/08/22 04:20:20;;;;;;;8.88;5.30;;;;;;;20.81;78.14;95769.78;5114642;28;20044;-60
2022/08/22 04:23:32;;;;;;;11.88;5.50;;;;;;;20.83;75.00;95766.97;5114571;27;20057;-59
2022/08/22 04:26:04;;;;;;;9.15;5.38;;;;;;;20.81;74.80;95772.44;5093954;28;20065;-59
2022/08/22 04:28:37;;;;;;;16.08;5.57;;;;;;;20.84;75.34;95777.44;5114593;28;20122;-59
2022/08/22 04:31:11;;;;;;;6.97;5.50;;;;;;;20.88;75.72;95766.53;5114408;28;20048;-60
2022/08/22 04:33:46;;;;;;;12.90;5.78;;;;;;;20.88;75.00;95772.69;5114395;28;20538;-61
2022/08/22 04:36:20;;;;;;;14.38;6.15;;;;;;;20.96;74.38;95766.72;5114335;28;20512;-61
2022/08/22 04:38:50;;;;;;;9.80;6.05;;;;;;;21.09;76.53;95763.72;5114258;28;20127;-60
2022/08/22 04:41:24;;;;;;;8.93;5.80;;;;;;;21.10;76.69;95769.91;5114322;28;20382;-61
2022/08/22 04:43:57;;;;;;;10.65;5.55;;;;;;;21.05;74.88;95765.84;5114127;28;20534;-59
2022/08/22 04:46:33;;;;;;;12.25;5.00;;;;;;;21.17;73.83;95765.69;5114195;28;20142;-59
2022/08/22 04:49:05;;;;;;;11.73;5.90;;;;;;;21.22;73.72;95768.72;5114438;28;20055;-59
2022/08/22 04:51:39;;;;;;;12.93;5.93;;;;;;;21.43;72.87;95771.19;5113902;28;20048;-59
2022/08/22 04:54:38;;;;;;;12.38;5.88;;;;;;;21.92;73.23;95772.88;5113969;28;20050;-61
2022/08/22 04:57:21;;;;;;;8.38;4.70;;;;;;;22.55;69.13;95774.84;5113959;28;20485;-60
2022/08/22 04:59:49;;;;;;;10.20;4.68;;;;;;;22.90;63.96;95778.50;5114032;28;20122;-61
2022/08/22 05:02:24;;;;;;;10.18;4.72;;;;;;;23.20;63.83;95768.38;5113865;28;20424;-59
2022/08/22 05:05:00;;;;;;;5.75;4.28;;;;;;;23.41;62.09;95771.69;5113078;28;20126;-61
2022/08/22 05:07:32;;;;;;;7.93;4.68;;;;;;;23.73;62.58;95770.19;5113942;28;20515;-60
2022/08/22 05:10:04;;;;;;;6.47;4.22;;;;;;;24.03;60.53;95768.00;5113889;28;20055;-61
2022/08/22 05:12:36;;;;;;;6.35;3.72;;;;;;;24.31;58.86;95766.91;5114285;28;20184;-61
2022/08/22 05:15:08;;;;;;;9.95;3.92;;;;;;;24.46;58.27;95769.78;5113738;28;20051;-59
2022/08/22 05:17:40;;;;;;;7.90;3.47;;;;;;;24.66;57.72;95770.31;5113888;28;20087;-61
2022/08/22 05:20:12;;;;;;;6.57;3.95;;;;;;;24.69;58.14;95767.31;5113732;28;20044;-60
2022/08/22 05:22:44;;;;;;;5.82;3.78;;;;;;;24.85;57.26;95765.63;5113867;28;20062;-61
2022/08/22 05:25:15;;;;;;;4.65;3.85;;;;;;;24.81;56.18;95765.16;5113462;28;20436;-61
2022/08/22 05:27:46;;;;;;;5.90;3.65;;;;;;;25.08;55.36;95771.16;5113518;28;20131;-61
2022/08/22 05:30:20;;;;;;;9.93;4.03;;;;;;;25.38;54.43;95759.09;5113511;28;20079;-59
2022/08/22 05:32:53;;;;;;;6.35;4.00;;;;;;;25.53;54.53;95767.25;5113490;28;20048;-59
2022/08/22 05:35:29;;;;;;;5.57;3.95;;;;;;;25.66;54.15;95756.88;5113335;28;20087;-59
2022/08/22 05:37:57;;;;;;;6.05;3.78;;;;;;;25.82;53.74;95766.69;5113477;28;20595;-62
2022/08/22 05:40:27;;;;;;;8.70;3.70;;;;;;;26.14;53.74;95771.22;5113433;28;20047;-61
2022/08/22 05:42:56;;;;;;;7.22;3.58;;;;;;;26.66;52.79;95769.75;5113483;28;20122;-61
2022/08/22 05:45:26;;;;;;;7.70;3.95;;;;;;;27.27;51.19;95784.19;5113515;28;20093;-60
2022/08/22 05:48:05;;;;;;;5.60;3.50;;;;;;;27.60;49.49;95781.19;5113365;28;20040;-60
2022/08/22 05:50:38;;;;;;;8.75;3.55;;;;;;;27.81;48.76;95792.25;5113479;28;20039;-60
2022/08/22 05:53:11;;;;;;;7.00;4.10;;;;;;;27.92;49.43;95799.00;5113288;28;20481;-61
2022/08/22 05:55:47;;;;;;;9.98;4.32;;;;;;;27.69;48.70;95799.94;5113174;28;20043;-61
2022/08/22 05:58:30;;;;;;;7.85;4.63;;;;;;;27.56;49.64;95797.84;5113313;28;20040;-61
2022/08/22 06:01:09;;;;;;;7.47;3.72;;;;;;;27.55;49.34;95801.56;5113104;28;20447;-61
2022/08/22 06:03:41;;;;;;;7.70;4.63;;;;;;;27.08;49.83;95810.53;5113282;28;20113;-61
2022/08/22 06:06:18;;;;;;;7.38;4.45;;;;;;;26.41;51.53;95802.09;5113269;28;20051;-57
2022/08/22 06:08:56;;;;;;;6.53;4.47;;;;;;;26.22;52.63;95803.34;5113292;28;20048;-60
2022/08/22 06:11:30;;;;;;;6.80;4.72;;;;;;;26.11;52.49;95802.72;5113136;28;20551;-59
2022/08/22 06:14:06;;;;;;;8.35;5.10;;;;;;;25.96;54.06;95799.94;5113229;28;20047;-61
2022/08/22 06:16:41;;;;;;;8.85;5.03;;;;;;;25.83;54.57;95797.78;5115363;28;20454;-61
2022/08/22 06:19:14;;;;;;;10.90;4.85;;;;;;;25.80;52.98;95800.00;5117115;28;20141;-60
2022/08/22 06:21:43;;;;;;;6.10;4.57;;;;;;;25.62;52.64;95793.03;5116834;28;20039;-58
2022/08/22 06:24:20;;;;;;;7.93;5.18;;;;;;;25.52;54.15;95803.06;5116863;28;20047;-59
2022/08/22 06:26:51;;;;;;;6.60;5.28;;;;;;;25.94;53.24;95803.78;5116703;28;20131;-60
2022/08/22 06:29:31;;;;;;;9.80;4.60;;;;;;;26.16;52.15;95801.38;5116703;28;20489;-59
2022/08/22 06:32:02;;;;;;;10.38;4.95;;;;;;;26.20;51.80;95797.31;5117074;28;20092;-60
2022/08/22 06:34:37;;;;;;;7.18;5.05;;;;;;;26.35;51.95;95802.81;5116512;28;20044;-61
2022/08/22 06:37:09;;;;;;;8.43;4.53;;;;;;;26.39;51.83;95803.28;5116500;28;20461;-59
2022/08/22 06:39:41;;;;;;;6.40;4.57;;;;;;;26.21;51.77;95807.88;5116481;28;20400;-59
2022/08/22 06:42:12;;;;;;;6.28;4.80;;;;;;;25.82;53.23;95804.16;5116520;28;20051;-61
2022/08/22 06:44:43;;;;;;;8.68;4.93;;;;;;;25.81;53.40;95804.34;5116517;28;20497;-60
2022/08/22 06:47:15;;;;;;;;;;;;;;;25.69;54.47;95810.06;5117028;28;20096;-62
2022/08/22 06:49:46;;;;;;;10.43;4.72;;;;;;;25.49;53.73;95807.75;5116431;28;19976;-61
2022/08/22 06:52:20;;;;;;;6.18;4.32;;;;;;;25.23;54.54;95814.13;5116671;28;20134;-61
2022/08/22 06:54:53;;;;;;;8.80;4.55;;;;;;;25.02;55.30;95811.97;5116291;28;20130;-60
2022/08/22 06:57:30;;;;;;;6.00;4.32;;;;;;;24.84;56.10;95809.41;5116478;27;20048;-59
2022/08/22 07:00:02;;;;;;;6.97;4.15;;;;;;;24.88;56.60;95804.59;5115860;28;20044;-59
2022/08/22 07:02:36;;;;;;;8.10;4.55;;;;;;;24.98;56.49;95810.63;5116361;28;20044;-60
2022/08/22 07:05:09;;;;;;;7.45;4.53;;;;;;;25.08;56.43;95813.94;5116144;28;20472;-61
2022/08/22 07:07:37;;;;;;;5.97;4.15;;;;;;;25.18;55.33;95813.81;5116143;28;20086;-60
2022/08/22 07:10:05;;;;;;;8.05;4.22;;;;;;;25.27;56.56;95811.94;5115972;28;20079;-60
2022/08/22 07:12:37;;;;;;;7.47;3.95;;;;;;;25.40;56.28;95807.94;5115936;28;20043;-61
2022/08/22 07:15:14;;;;;;;8.68;4.05;;;;;;;25.39;55.12;95814.28;5115779;28;20093;-60
2022/08/22 07:17:51;;;;;;;9.63;3.83;;;;;;;25.38;54.57;95820.63;5115890;27;20055;-61
2022/08/22 07:20:27;;;;;;;6.53;4.18;;;;;;;25.44;55.14;95814.63;5115734;28;20101;-62
2022/08/22 07:22:57;;;;;;;8.05;4.03;;;;;;;25.56;55.52;95815.94;5115765;27;20096;-61
2022/08/22 07:25:25;;;;;;;7.03;4.78;;;;;;;25.64;53.48;95822.31;5115732;28;20048;-61
2022/08/22 07:28:05;;;;;;;8.65;4.55;;;;;;;25.69;55.04;95819.94;5114564;28;20070;-60
2022/08/22 07:30:45;;;;;;;7.00;4.70;;;;;;;25.91;54.12;95818.38;5115524;27;20093;-62
2022/08/22 07:33:26;;;;;;;10.90;4.72;;;;;;;26.02;53.76;95827.03;5115629;28;20054;-62
2022/08/22 07:35:59;;;;;;;7.10;4.32;;;;;;;26.02;52.77;95832.38;5115637;28;20132;-61
2022/08/22 07:38:35;;;;;;;7.00;4.40;;;;;;;25.90;53.06;95830.09;5115431;28;20443;-59
2022/08/22 07:41:13;;;;;;;10.95;4.53;;;;;;;25.86;53.15;95828.78;5115553;28;20047;-60
2022/08/22 07:43:44;;;;;;;8.57;4.18;;;;;;;25.83;53.35;95834.47;5115475;28;20043;-60
2022/08/22 07:46:26;;;;;;;6.13;4.47;;;;;;;26.14;52.93;95835.53;5115185;28;20051;-61
2022/08/22 07:48:59;;;;;;;7.70;4.55;;;;;;;26.41;52.29;95828.06;5115068;28;20044;-61
2022/08/22 07:51:34;;;;;;;6.60;4.55;;;;;;;26.56;52.14;95829.00;5115143;28;20075;-60
2022/08/22 07:54:05;;;;;;;6.68;4.53;;;;;;;26.78;52.27;95831.03;5115232;28;20078;-61
2022/08/22 07:56:37;;;;;;;10.27;5.70;;;;;;;26.92;50.25;95832.94;5114997;28;20126;-61
2022/08/22 07:59:09;;;;;;;8.27;4.68;;;;;;;27.06;50.53;95823.28;5115102;28;20043;-59
2022/08/22 08:01:38;;;;;;;7.85;4.38;;;;;;;27.09;49.37;95832.84;5114971;28;20120;-61
2022/08/22 08:04:09;;;;;;;7.38;4.70;;;;;;;27.11;50.49;95828.13;5114862;28;20047;-59
2022/08/22 08:06:38;;;;;;;9.68;4.60;;;;;;;27.16;50.91;95832.97;5114818;28;20058;-60
2022/08/22 08:09:06;;;;;;;7.05;4.80;;;;;;;27.16;50.52;95830.28;5114920;28;20043;-61
2022/08/22 08:11:40;;;;;;;8.85;4.40;;;;;;;27.27;49.94;95829.00;5114886;28;20070;-59
2022/08/22 08:14:08;;;;;;;5.88;4.50;;;;;;;27.33;49.79;95831.78;5114749;28;20079;-59
2022/08/22 08:16:43;;;;;;;7.97;4.95;;;;;;;27.52;49.67;95834.16;5114543;28;20444;-61
2022/08/22 08:19:12;;;;;;;6.50;4.88;;;;;;;27.54;48.98;95830.25;5114520;28;20455;-59
2022/08/22 08:21:48;;;;;;;7.87;4.57;;;;;;;27.45;47.76;95832.19;5114581;27;20051;-59
2022/08/22 08:24:22;;;;;;;9.48;4.90;;;;;;;27.24;49.08;95831.03;5114548;28;20047;-60
2022/08/22 08:29:40;;;;;;;13.52;5.68;;;;;;;27.98;49.80;95828.66;5114662;28;20058;-60
2022/08/22 08:32:11;;;;;;;7.93;5.27;;;;;;;28.41;49.03;95829.00;5114326;27;20480;-60
2022/08/22 08:34:42;;;;;;;5.45;4.70;;;;;;;28.63;45.99;95822.63;5114265;28;20279;-60
2022/08/22 08:37:19;;;;;;;9.32;4.10;;;;;;;28.99;46.49;95828.22;5114440;28;20540;-60
2022/08/22 08:39:50;;;;;;;7.35;5.10;;;;;;;29.24;45.40;95822.41;5114041;28;20138;-61
2022/08/22 08:45:40;;;;;;;8.60;4.50;;;;;;;28.71;45.53;95829.75;5114111;28;20401;-59
2022/08/22 08:48:46;;;;;;;5.78;4.63;;;;;;;28.62;47.62;95822.81;5114320;28;20047;-61
2022/08/22 08:51:42;;;;;;;7.28;4.95;;;;;;;28.53;46.88;95830.16;5113930;28;20054;-60
2022/08/22 08:54:38;;;;;;;9.38;4.95;;;;;;;28.47;47.56;95825.56;5113867;28;20046;-59
2022/08/22 08:57:15;;;;;;;11.27;5.55;;;;;;;28.42;49.34;95822.59;5113917;28;20044;-60
2022/08/22 08:59:52;;;;;;;9.02;5.35;;;;;;;28.38;48.25;95822.97;5113872;28;20093;-61
2022/08/22 09:02:48;;;;;;;9.82;5.10;;;;;;;28.29;47.17;95821.41;5113759;28;20083;-59
2022/08/22 09:05:39;;;;;;;5.82;5.18;;;;;;;28.19;47.69;95820.84;5113982;28;20071;-61
2022/08/22 09:08:41;;;;;;;8.45;5.22;;;;;;;28.17;48.01;95815.66;5113800;28;20055;-61
2022/08/22 09:11:38;;;;;;;9.75;5.40;;;;;;;28.32;46.93;95812.16;5113563;28;20044;-59
2022/08/22 09:14:20;;;;;;;10.10;6.10;;;;;;;28.28;48.26;95818.88;5113800;28;20086;-60
2022/08/22 09:17:05;;;;;;;8.80;5.32;;;;;;;28.59;48.13;95812.47;5113712;28;20139;-60
2022/08/22 09:20:03;;;;;;;8.32;5.50;;;;;;;29.12;47.06;95808.66;5112015;28;20039;-61
2022/08/22 09:23:00;;;;;;;9.13;5.47;;;;;;;29.29;44.58;95811.91;5113885;28;20054;-60
2022/08/22 09:25:31;;;;;;;14.02;6.28;;;;;;;29.08;43.49;95810.06;5113580;28;20040;-60
2022/08/22 09:28:11;;;;;;;9.93;6.03;;;;;;;28.70;44.89;95808.41;5113489;28;20407;-61
2022/08/22 09:30:51;;;;;;;8.97;6.17;;;;;;;28.52;45.45;95815.06;5113522;28;20047;-60
2022/08/22 09:33:20;;;;;;;;;;;;;;;28.54;46.32;95802.28;5113838;28;20059;-59
2022/08/22 09:35:56;;;;;;;11.40;5.97;;;;;;;28.63;46.65;95803.81;5113470;28;19924;-60
2022/08/22 09:38:34;;;;;;;6.80;5.65;;;;;;;28.77;45.91;95801.25;5113682;28;20097;-60
2022/08/22 09:41:30;;;;;;;7.28;4.82;;;;;;;28.79;45.79;95804.59;5113378;28;20044;-59
2022/08/22 09:44:09;;;;;;;7.00;4.90;;;;;;;28.40;44.83;95805.81;5113692;28;20481;-61
2022/08/22 09:46:49;;;;;;;8.55;5.63;;;;;;;28.17;47.07;95799.53;5113496;28;20096;-61
2022/08/22 09:49:23;;;;;;;;;;;;;;;28.08;47.53;95796.13;5113790;28;20055;-61
2022/08/22 09:52:00;;;;;;;9.23;5.32;;;;;;;27.99;46.54;95798.06;5116210;28;19927;-61
2022/08/22 09:54:33;;;;;;;8.05;5.95;;;;;;;27.98;46.41;95796.41;5117450;28;20052;-60
2022/08/22 09:57:14;;;;;;;10.55;5.85;;;;;;;28.08;46.15;95798.00;5117209;28;20094;-60
2022/08/22 10:00:16;;;;;;;8.98;6.60;;;;;;;28.03;46.83;95789.63;5117452;28;20066;-60
2022/08/22 10:02:54;;;;;;;8.52;5.85;;;;;;;28.15;46.50;95781.94;5117277;28;20039;-58
2022/08/22 10:05:27;;;;;;;7.18;5.68;;;;;;;28.30;47.00;95781.94;5117345;28;20060;-60
2022/08/22 10:08:12;;;;;;;8.88;5.90;;;;;;;28.50;46.45;95776.75;5117427;27;20062;-61
2022/08/22 10:11:11;;;;;;;8.68;6.22;;;;;;;28.63;44.82;95776.09;5117082;28;20501;-60
2022/08/22 10:13:54;;;;;;;6.63;5.88;;;;;;;28.83;44.13;95775.47;5117053;28;20043;-61
2022/08/22 10:16:36;;;;;;;10.15;5.40;;;;;;;28.96;44.36;95764.00;5116999;28;20047;-59
2022/08/22 10:19:15;;;;;;;12.68;6.40;;;;;;;29.38;45.84;95759.56;5117283;28;20079;-61
2022/08/22 10:22:03;;;;;;;9.57;5.88;;;;;;;29.48;44.34;95759.22;5117115;28;20098;-60
2022/08/22 10:24:41;;;;;;;10.32;5.38;;;;;;;29.41;44.54;95754.81;5116933;28;20130;-60
2022/08/22 10:27:15;;;;;;;10.52;5.38;;;;;;;29.75;45.35;95754.03;5116809;28;20043;-59
2022/08/22 10:30:04;;;;;;;9.13;5.35;;;;;;;30.26;44.11;95754.69;5116990;28;20051;-59
2022/08/22 10:32:36;;;;;;;7.45;6.45;;;;;;;30.70;43.16;95758.94;5116881;28;20135;-60
2022/08/22 10:35:14;;;;;;;10.52;6.32;;;;;;;30.70;42.75;95754.34;5116786;28;20047;-60
2022/08/22 10:37:52;;;;;;;10.55;6.05;;;;;;;30.22;40.98;95752.59;5116544;28;20044;-61
2022/08/22 10:40:26;;;;;;;10.27;6.53;;;;;;;29.66;41.32;95765.13;5116589;28;20081;-58
2022/08/22 10:43:00;;;;;;;7.15;5.38;;;;;;;29.41;41.88;95760.19;5116540;28;20092;-59
2022/08/22 10:45:32;;;;;;;8.45;5.55;;;;;;;29.31;41.68;95765.94;5116377;28;20083;-59
2022/08/22 10:48:31;;;;;;;11.40;6.60;;;;;;;29.23;41.73;95756.16;5116431;28;20447;-60
2022/08/22 10:51:06;;;;;;;10.80;6.75;;;;;;;29.25;41.66;95756.75;5114592;28;20048;-61
2022/08/22 10:53:44;;;;;;;10.55;6.22;;;;;;;28.86;42.72;95759.75;5116353;28;20059;-59
2022/08/22 10:56:20;;;;;;;14.77;6.35;;;;;;;29.06;43.05;95753.75;5116158;28;20043;-60
2022/08/22 10:58:54;;;;;;;19.48;7.07;;;;;;;29.26;43.59;95750.38;5116430;28;20544;-58
2022/08/22 11:01:25;;;;;;;11.77;5.70;;;;;;;29.62;41.84;95743.19;5116032;28;20059;-59
2022/08/22 11:03:59;;;;;;;;;;;;;;;29.80;42.54;95744.50;5115546;28;20067;-58
2022/08/22 11:06:32;;;;;;;12.23;6.22;;;;;;;30.02;42.19;95737.97;5116134;28;20443;-61
2022/08/22 11:09:18;;;;;;;8.57;6.47;;;;;;;30.10;40.22;95731.56;5116170;28;20082;-61
2022/08/22 11:11:53;;;;;;;9.15;6.25;;;;;;;30.20;39.68;95730.38;5115925;28;20047;-60
2022/08/22 11:14:31;;;;;;;8.57;6.28;;;;;;;30.22;40.13;95728.31;5115877;28;20087;-60
2022/08/22 11:17:09;;;;;;;11.60;6.47;;;;;;;30.09;40.35;95735.28;5115656;28;20062;-59
2022/08/22 11:19:56;;;;;;;8.68;6.55;;;;;;;30.30;40.29;95722.72;5115859;27;20083;-59
2022/08/22 11:22:34;;;;;;;7.47;6.05;;;;;;;30.45;39.73;95724.41;5115509;28;20051;-60
2022/08/22 11:25:32;;;;;;;6.47;5.80;;;;;;;30.66;40.97;95714.53;5115703;28;20490;-60
2022/08/22 11:28:15;;;;;;;10.35;6.00;;;;;;;30.78;38.99;95718.28;5115658;28;20420;-58
2022/08/22 11:30:59;;;;;;;8.07;5.50;;;;;;;30.60;39.06;95722.38;5115986;28;20059;-59
2022/08/22 11:33:34;;;;;;;10.23;6.45;;;;;;;30.22;39.16;95726.44;5115513;28;20052;-59
2022/08/22 11:36:18;;;;;;;6.90;5.72;;;;;;;30.17;39.76;95715.44;5115328;28;20058;-59
2022/08/22 11:38:53;;;;;;;7.65;6.07;;;;;;;30.17;39.78;95712.75;5115376;28;20562;-59
2022/08/22 11:41:25;;;;;;;7.75;5.88;;;;;;;29.77;38.74;95708.03;5115458;28;20039;-60
2022/08/22 11:44:00;;;;;;;10.77;5.50;;;;;;;29.51;39.47;95707.66;5115454;28;20047;-58
2022/08/22 11:46:32;;;;;;;12.90;5.75;;;;;;;29.25;40.62;95703.78;5115255;28;20052;-60
2022/08/22 11:49:32;;;;;;;11.45;6.28;;;;;;;29.20;40.40;95705.41;5115245;27;20051;-59
2022/08/22 11:52:11;;;;;;;6.28;5.68;;;;;;;28.99;40.51;95697.16;5115201;28;20051;-59
2022/08/22 11:55:04;;;;;;;10.70;6.00;;;;;;;28.81;40.88;95712.94;5115330;27;20073;-59
2022/08/22 11:57:35;;;;;;;7.72;5.57;;;;;;;28.58;40.60;95720.19;5115008;28;20138;-58
2022/08/22 12:00:13;;;;;;;11.18;6.03;;;;;;;28.62;40.66;95716.09;5114778;28;20081;-58
2022/08/22 12:02:51;;;;;;;6.55;5.15;;;;;;;28.79;38.55;95720.34;5114976;28;20051;-59
2022/08/22 12:05:21;;;;;;;9.75;5.60;;;;;;;29.03;38.92;95711.06;5114988;28;20413;-59
2022/08/22 12:07:57;;;;;;;11.68;4.93;;;;;;;29.42;39.39;95705.31;5114883;28;20489;-59
2022/08/22 12:10:32;;;;;;;6.97;4.88;;;;;;;29.46;38.47;95710.09;5114695;27;20047;-58
2022/08/22 12:13:06;;;;;;;6.05;4.50;;;;;;;29.16;37.85;95715.72;5114608;28;20119;-57
2022/08/22 12:15:41;;;;;;;7.65;4.57;;;;;;;28.94;38.17;95710.38;5114583;28;20541;-59
2022/08/22 12:18:43;;;;;;;10.68;4.95;;;;;;;29.23;38.14;95699.63;5114608;28;20145;-58
2022/08/22 12:21:36;;;;;;;7.97;4.57;;;;;;;29.60;39.32;95696.75;5114601;28;20039;-60
2022/08/22 12:24:21;;;;;;;9.73;4.78;;;;;;;30.04;38.22;95693.81;5114741;28;20047;-60
2022/08/22 12:27:14;;;;;;;5.53;4.00;;;;;;;30.18;35.35;95708.16;5114417;28;20083;-59
2022/08/22 12:29:50;;;;;;;10.73;4.15;;;;;;;30.21;35.47;95705.06;5111557;28;20135;-59
2022/08/22 12:33:00;;;;;;;4.15;3.75;;;;;;;30.39;35.21;95696.41;5114497;28;20044;-59
2022/08/22 12:35:35;;;;;;;6.85;4.45;;;;;;;30.32;33.86;95700.97;5114606;28;20405;-60